sensor_id;sensor_type;location;lat;lon;timestamp;P1;durP1;ratioP1;P2;durP2;ratioP2
35943;SDS011;22029;54.774;9.434;2023-10-09T00:01:04;0.70;;;0.70;;
35943;SDS011;22029;54.774;9.434;2023-10-09T00:03:40;0.70;;;0.70;;
35943;SDS011;22029;54.774;9.434;2023-10-09T00:06:12;0.80;;;0.80;;
35943;SDS011;22029;54.774;9.434;2023-10-09T00:08:43;0.70;;;0.70;;
35943;SDS011;22029;54.774;9.434;2023-10-09T00:11:18;0.80;;;0.80;;
35943;SDS011;22029;54.774;9.434;2023-10-09T00:13:54;0.70;;;0.70;;
35943;SDS011;22029;54.774;9.434;2023-10-09T00:16:25;0.70;;;0.70;;
35943;SDS011;22029;54.774;9.434;2023-10-09T00:19:02;0.70;;;0.70;;
35943;SDS011;22029;54.774;9.434;2023-10-09T00:21:42;0.80;;;0.80;;
35943;SDS011;22029;54.774;9.434;2023-10-09T00:24:12;0.70;;;0.70;;
35943;SDS011;22029;54.774;9.434;2023-10-09T00:26:49;0.70;;;0.70;;
35943;SDS011;22029;54.774;9.434;2023-10-09T00:29:23;0.63;;;0.63;;
35943;SDS011;22029;54.774;9.434;2023-10-09T00:31:55;0.80;;;0.80;;
35943;SDS011;22029;54.774;9.434;2023-10-09T00:34:33;0.63;;;0.63;;
35943;SDS011;22029;54.774;9.434;2023-10-09T00:37:09;0.70;;;0.70;;
35943;SDS011;22029;54.774;9.434;2023-10-09T00:39:43;0.70;;;0.70;;
35943;SDS011;22029;54.774;9.434;2023-10-09T00:42:15;0.63;;;0.63;;
35943;SDS011;22029;54.774;9.434;2023-10-09T00:44:55;0.60;;;0.60;;
35943;SDS011;22029;54.774;9.434;2023-10-09T00:47:31;0.70;;;0.70;;
35943;SDS011;22029;54.774;9.434;2023-10-09T00:50:04;0.70;;;0.70;;
35943;SDS011;22029;54.774;9.434;2023-10-09T00:52:40;0.70;;;0.70;;
35943;SDS011;22029;54.774;9.434;2023-10-09T00:55:18;0.60;;;0.60;;
35943;SDS011;22029;54.774;9.434;2023-10-09T00:57:50;0.70;;;0.70;;
35943;SDS011;22029;54.774;9.434;2023-10-09T01:00:20;0.70;;;0.70;;
35943;SDS011;22029;54.774;9.434;2023-10-09T01:03:00;0.70;;;0.70;;
35943;SDS011;22029;54.774;9.434;2023-10-09T01:05:48;0.60;;;0.60;;
35943;SDS011;22029;54.774;9.434;2023-10-09T01:08:26;0.70;;;0.70;;
35943;SDS011;22029;54.774;9.434;2023-10-09T01:11:11;0.60;;;0.60;;
35943;SDS011;22029;54.774;9.434;2023-10-09T01:13:46;0.60;;;0.60;;
35943;SDS011;22029;54.774;9.434;2023-10-09T01:16:22;0.57;;;0.57;;
35943;SDS011;22029;54.774;9.434;2023-10-09T01:18:53;0.60;;;0.60;;
35943;SDS011;22029;54.774;9.434;2023-10-09T01:21:25;0.50;;;0.50;;
35943;SDS011;22029;54.774;9.434;2023-10-09T01:23:56;0.50;;;0.50;;
35943;SDS011;22029;54.774;9.434;2023-10-09T01:26:36;0.40;;;0.40;;
35943;SDS011;22029;54.774;9.434;2023-10-09T01:29:13;0.40;;;0.40;;
35943;SDS011;22029;54.774;9.434;2023-10-09T01:31:47;0.40;;;0.40;;
35943;SDS011;22029;54.774;9.434;2023-10-09T01:34:23;0.40;;;0.40;;
35943;SDS011;22029;54.774;9.434;2023-10-09T01:36:54;0.40;;;0.40;;
35943;SDS011;22029;54.774;9.434;2023-10-09T01:39:28;0.40;;;0.40;;
35943;SDS011;22029;54.774;9.434;2023-10-09T01:41:58;0.40;;;0.40;;
35943;SDS011;22029;54.774;9.434;2023-10-09T01:44:28;0.30;;;0.30;;
35943;SDS011;22029;54.774;9.434;2023-10-09T01:47:02;0.30;;;0.30;;
35943;SDS011;22029;54.774;9.434;2023-10-09T01:49:35;0.30;;;0.30;;
35943;SDS011;22029;54.774;9.434;2023-10-09T01:52:09;0.30;;;0.30;;
35943;SDS011;22029;54.774;9.434;2023-10-09T01:54:45;0.30;;;0.30;;
35943;SDS011;22029;54.774;9.434;2023-10-09T01:57:17;0.40;;;0.40;;
35943;SDS011;22029;54.774;9.434;2023-10-09T01:59:51;0.30;;;0.30;;
35943;SDS011;22029;54.774;9.434;2023-10-09T02:02:22;0.30;;;0.30;;
35943;SDS011;22029;54.774;9.434;2023-10-09T02:04:59;0.30;;;0.30;;
35943;SDS011;22029;54.774;9.434;2023-10-09T02:07:37;0.30;;;0.30;;
35943;SDS011;22029;54.774;9.434;2023-10-09T02:10:14;0.30;;;0.30;;
35943;SDS011;22029;54.774;9.434;2023-10-09T02:13:01;0.40;;;0.40;;
35943;SDS011;22029;54.774;9.434;2023-10-09T02:15:37;0.30;;;0.30;;
35943;SDS011;22029;54.774;9.434;2023-10-09T02:18:21;0.30;;;0.30;;
35943;SDS011;22029;54.774;9.434;2023-10-09T02:21:07;0.30;;;0.30;;
35943;SDS011;22029;54.774;9.434;2023-10-09T02:23:43;0.30;;;0.30;;
35943;SDS011;22029;54.774;9.434;2023-10-09T02:26:19;0.30;;;0.30;;
35943;SDS011;22029;54.774;9.434;2023-10-09T02:28:54;0.40;;;0.40;;
35943;SDS011;22029;54.774;9.434;2023-10-09T02:31:27;0.33;;;0.33;;
35943;SDS011;22029;54.774;9.434;2023-10-09T02:34:04;0.30;;;0.30;;
35943;SDS011;22029;54.774;9.434;2023-10-09T02:36:40;0.30;;;0.30;;
35943;SDS011;22029;54.774;9.434;2023-10-09T02:39:11;0.40;;;0.40;;
35943;SDS011;22029;54.774;9.434;2023-10-09T02:41:53;0.30;;;0.30;;
35943;SDS011;22029;54.774;9.434;2023-10-09T02:44:28;0.30;;;0.30;;
35943;SDS011;22029;54.774;9.434;2023-10-09T02:47:02;0.30;;;0.30;;
35943;SDS011;22029;54.774;9.434;2023-10-09T02:49:33;0.30;;;0.30;;
35943;SDS011;22029;54.774;9.434;2023-10-09T02:52:05;0.30;;;0.30;;
35943;SDS011;22029;54.774;9.434;2023-10-09T02:54:35;0.30;;;0.30;;
35943;SDS011;22029;54.774;9.434;2023-10-09T02:57:10;0.40;;;0.40;;
35943;SDS011;22029;54.774;9.434;2023-10-09T02:59:49;0.30;;;0.30;;
35943;SDS011;22029;54.774;9.434;2023-10-09T03:02:20;0.40;;;0.40;;
35943;SDS011;22029;54.774;9.434;2023-10-09T03:04:51;0.30;;;0.30;;
35943;SDS011;22029;54.774;9.434;2023-10-09T03:07:23;0.30;;;0.30;;
35943;SDS011;22029;54.774;9.434;2023-10-09T03:09:53;0.30;;;0.30;;
35943;SDS011;22029;54.774;9.434;2023-10-09T03:12:24;0.30;;;0.30;;
35943;SDS011;22029;54.774;9.434;2023-10-09T03:14:55;0.30;;;0.30;;
35943;SDS011;22029;54.774;9.434;2023-10-09T03:17:26;0.30;;;0.30;;
35943;SDS011;22029;54.774;9.434;2023-10-09T03:19:57;0.30;;;0.30;;
35943;SDS011;22029;54.774;9.434;2023-10-09T03:22:27;0.30;;;0.30;;
35943;SDS011;22029;54.774;9.434;2023-10-09T03:24:58;0.40;;;0.40;;
35943;SDS011;22029;54.774;9.434;2023-10-09T03:27:29;0.40;;;0.40;;
35943;SDS011;22029;54.774;9.434;2023-10-09T03:29:58;0.30;;;0.30;;
35943;SDS011;22029;54.774;9.434;2023-10-09T03:32:32;0.30;;;0.30;;
35943;SDS011;22029;54.774;9.434;2023-10-09T03:35:02;0.30;;;0.30;;
35943;SDS011;22029;54.774;9.434;2023-10-09T03:37:37;0.37;;;0.37;;
35943;SDS011;22029;54.774;9.434;2023-10-09T03:40:07;0.30;;;0.30;;
35943;SDS011;22029;54.774;9.434;2023-10-09T03:42:45;0.30;;;0.30;;
35943;SDS011;22029;54.774;9.434;2023-10-09T03:45:16;0.30;;;0.30;;
35943;SDS011;22029;54.774;9.434;2023-10-09T03:47:52;0.30;;;0.30;;
35943;SDS011;22029;54.774;9.434;2023-10-09T03:50:30;0.30;;;0.30;;
35943;SDS011;22029;54.774;9.434;2023-10-09T03:53:05;0.30;;;0.30;;
35943;SDS011;22029;54.774;9.434;2023-10-09T03:55:40;0.30;;;0.30;;
35943;SDS011;22029;54.774;9.434;2023-10-09T03:58:11;0.30;;;0.30;;
35943;SDS011;22029;54.774;9.434;2023-10-09T04:00:46;0.30;;;0.30;;
35943;SDS011;22029;54.774;9.434;2023-10-09T04:03:17;0.30;;;0.30;;
35943;SDS011;22029;54.774;9.434;2023-10-09T04:05:48;0.30;;;0.30;;
35943;SDS011;22029;54.774;9.434;2023-10-09T04:08:21;0.30;;;0.30;;
35943;SDS011;22029;54.774;9.434;2023-10-09T04:10:56;0.30;;;0.30;;
35943;SDS011;22029;54.774;9.434;2023-10-09T04:13:33;0.30;;;0.30;;
35943;SDS011;22029;54.774;9.434;2023-10-09T04:16:03;0.30;;;0.30;;
35943;SDS011;22029;54.774;9.434;2023-10-09T04:18:47;0.30;;;0.30;;
35943;SDS011;22029;54.774;9.434;2023-10-09T04:21:17;0.30;;;0.30;;
35943;SDS011;22029;54.774;9.434;2023-10-09T04:24:02;0.30;;;0.30;;
35943;SDS011;22029;54.774;9.434;2023-10-09T04:26:48;0.30;;;0.30;;
35943;SDS011;22029;54.774;9.434;2023-10-09T04:29:25;0.30;;;0.30;;
35943;SDS011;22029;54.774;9.434;2023-10-09T04:32:06;0.30;;;0.30;;
35943;SDS011;22029;54.774;9.434;2023-10-09T04:34:45;0.20;;;0.20;;
35943;SDS011;22029;54.774;9.434;2023-10-09T04:37:23;0.30;;;0.30;;
35943;SDS011;22029;54.774;9.434;2023-10-09T04:40:04;0.30;;;0.30;;
35943;SDS011;22029;54.774;9.434;2023-10-09T04:42:39;0.30;;;0.30;;
35943;SDS011;22029;54.774;9.434;2023-10-09T04:45:27;0.30;;;0.30;;
35943;SDS011;22029;54.774;9.434;2023-10-09T04:48:13;0.30;;;0.30;;
35943;SDS011;22029;54.774;9.434;2023-10-09T04:51:00;0.30;;;0.30;;
35943;SDS011;22029;54.774;9.434;2023-10-09T04:53:47;0.30;;;0.30;;
35943;SDS011;22029;54.774;9.434;2023-10-09T04:56:27;0.30;;;0.30;;
35943;SDS011;22029;54.774;9.434;2023-10-09T04:59:00;0.30;;;0.30;;
35943;SDS011;22029;54.774;9.434;2023-10-09T05:01:37;0.30;;;0.30;;
35943;SDS011;22029;54.774;9.434;2023-10-09T05:04:11;0.30;;;0.30;;
35943;SDS011;22029;54.774;9.434;2023-10-09T05:07:02;0.30;;;0.30;;
35943;SDS011;22029;54.774;9.434;2023-10-09T05:09:50;0.30;;;0.30;;
35943;SDS011;22029;54.774;9.434;2023-10-09T05:12:37;0.20;;;0.20;;
35943;SDS011;22029;54.774;9.434;2023-10-09T05:15:14;0.30;;;0.30;;
35943;SDS011;22029;54.774;9.434;2023-10-09T05:17:44;0.30;;;0.30;;
35943;SDS011;22029;54.774;9.434;2023-10-09T05:20:24;0.27;;;0.27;;
35943;SDS011;22029;54.774;9.434;2023-10-09T05:23:11;0.20;;;0.20;;
35943;SDS011;22029;54.774;9.434;2023-10-09T05:25:52;0.30;;;0.30;;
35943;SDS011;22029;54.774;9.434;2023-10-09T05:28:23;0.30;;;0.30;;
35943;SDS011;22029;54.774;9.434;2023-10-09T05:31:16;0.30;;;0.30;;
35943;SDS011;22029;54.774;9.434;2023-10-09T05:34:01;0.30;;;0.30;;
35943;SDS011;22029;54.774;9.434;2023-10-09T05:36:34;0.30;;;0.30;;
35943;SDS011;22029;54.774;9.434;2023-10-09T05:39:03;0.20;;;0.20;;
35943;SDS011;22029;54.774;9.434;2023-10-09T05:42:09;0.30;;;0.30;;
35943;SDS011;22029;54.774;9.434;2023-10-09T05:44:45;0.30;;;0.30;;
35943;SDS011;22029;54.774;9.434;2023-10-09T05:47:45;0.30;;;0.30;;
35943;SDS011;22029;54.774;9.434;2023-10-09T05:50:22;0.30;;;0.30;;
35943;SDS011;22029;54.774;9.434;2023-10-09T05:53:09;0.27;;;0.27;;
35943;SDS011;22029;54.774;9.434;2023-10-09T05:55:59;0.30;;;0.30;;
35943;SDS011;22029;54.774;9.434;2023-10-09T05:58:46;0.30;;;0.30;;
35943;SDS011;22029;54.774;9.434;2023-10-09T06:01:33;0.20;;;0.20;;
35943;SDS011;22029;54.774;9.434;2023-10-09T06:04:21;0.30;;;0.30;;
35943;SDS011;22029;54.774;9.434;2023-10-09T06:07:03;0.20;;;0.20;;
35943;SDS011;22029;54.774;9.434;2023-10-09T06:09:41;0.20;;;0.20;;
35943;SDS011;22029;54.774;9.434;2023-10-09T06:12:25;0.20;;;0.20;;
35943;SDS011;22029;54.774;9.434;2023-10-09T06:15:21;0.20;;;0.20;;
35943;SDS011;22029;54.774;9.434;2023-10-09T06:18:08;0.20;;;0.20;;
35943;SDS011;22029;54.774;9.434;2023-10-09T06:20:51;0.20;;;0.20;;
35943;SDS011;22029;54.774;9.434;2023-10-09T06:23:59;0.20;;;0.20;;
35943;SDS011;22029;54.774;9.434;2023-10-09T06:26:43;0.27;;;0.27;;
35943;SDS011;22029;54.774;9.434;2023-10-09T06:29:40;0.20;;;0.20;;
35943;SDS011;22029;54.774;9.434;2023-10-09T06:32:35;0.20;;;0.20;;
35943;SDS011;22029;54.774;9.434;2023-10-09T06:35:05;0.20;;;0.20;;
35943;SDS011;22029;54.774;9.434;2023-10-09T06:37:43;0.30;;;0.30;;
35943;SDS011;22029;54.774;9.434;2023-10-09T06:40:34;0.20;;;0.20;;
35943;SDS011;22029;54.774;9.434;2023-10-09T06:43:21;0.20;;;0.20;;
35943;SDS011;22029;54.774;9.434;2023-10-09T06:45:57;0.20;;;0.20;;
35943;SDS011;22029;54.774;9.434;2023-10-09T06:48:47;0.30;;;0.30;;
35943;SDS011;22029;54.774;9.434;2023-10-09T06:51:25;0.20;;;0.20;;
35943;SDS011;22029;54.774;9.434;2023-10-09T06:54:10;0.20;;;0.20;;
35943;SDS011;22029;54.774;9.434;2023-10-09T06:56:45;0.20;;;0.20;;
35943;SDS011;22029;54.774;9.434;2023-10-09T06:59:43;0.20;;;0.20;;
35943;SDS011;22029;54.774;9.434;2023-10-09T07:02:26;0.20;;;0.20;;
35943;SDS011;22029;54.774;9.434;2023-10-09T07:04:59;0.20;;;0.20;;
35943;SDS011;22029;54.774;9.434;2023-10-09T07:07:40;0.20;;;0.20;;
35943;SDS011;22029;54.774;9.434;2023-10-09T07:10:22;0.20;;;0.20;;
35943;SDS011;22029;54.774;9.434;2023-10-09T07:12:58;0.20;;;0.20;;
35943;SDS011;22029;54.774;9.434;2023-10-09T07:15:31;0.20;;;0.20;;
35943;SDS011;22029;54.774;9.434;2023-10-09T07:18:18;0.20;;;0.20;;
35943;SDS011;22029;54.774;9.434;2023-10-09T07:20:51;0.20;;;0.20;;
35943;SDS011;22029;54.774;9.434;2023-10-09T07:23:39;0.20;;;0.20;;
35943;SDS011;22029;54.774;9.434;2023-10-09T07:26:16;0.20;;;0.20;;
35943;SDS011;22029;54.774;9.434;2023-10-09T07:28:52;0.20;;;0.20;;
35943;SDS011;22029;54.774;9.434;2023-10-09T07:31:43;0.20;;;0.20;;
35943;SDS011;22029;54.774;9.434;2023-10-09T07:34:16;0.20;;;0.20;;
35943;SDS011;22029;54.774;9.434;2023-10-09T07:37:20;0.20;;;0.20;;
35943;SDS011;22029;54.774;9.434;2023-10-09T07:39:50;0.20;;;0.20;;
35943;SDS011;22029;54.774;9.434;2023-10-09T07:42:26;0.20;;;0.20;;
35943;SDS011;22029;54.774;9.434;2023-10-09T07:45:03;0.20;;;0.20;;
35943;SDS011;22029;54.774;9.434;2023-10-09T07:47:59;0.20;;;0.20;;
35943;SDS011;22029;54.774;9.434;2023-10-09T07:50:34;0.20;;;0.20;;
35943;SDS011;22029;54.774;9.434;2023-10-09T07:53:08;0.20;;;0.20;;
35943;SDS011;22029;54.774;9.434;2023-10-09T07:55:46;0.20;;;0.20;;
35943;SDS011;22029;54.774;9.434;2023-10-09T07:58:24;0.20;;;0.20;;
35943;SDS011;22029;54.774;9.434;2023-10-09T08:00:55;0.20;;;0.20;;
35943;SDS011;22029;54.774;9.434;2023-10-09T08:03:35;0.20;;;0.20;;
35943;SDS011;22029;54.774;9.434;2023-10-09T08:06:05;0.20;;;0.20;;
35943;SDS011;22029;54.774;9.434;2023-10-09T08:08:52;0.20;;;0.20;;
35943;SDS011;22029;54.774;9.434;2023-10-09T08:11:36;0.20;;;0.20;;
35943;SDS011;22029;54.774;9.434;2023-10-09T08:14:23;0.20;;;0.20;;
35943;SDS011;22029;54.774;9.434;2023-10-09T08:17:07;0.20;;;0.20;;
35943;SDS011;22029;54.774;9.434;2023-10-09T08:19:45;0.20;;;0.20;;
35943;SDS011;22029;54.774;9.434;2023-10-09T08:22:21;0.20;;;0.20;;
35943;SDS011;22029;54.774;9.434;2023-10-09T08:25:08;0.20;;;0.20;;
35943;SDS011;22029;54.774;9.434;2023-10-09T08:27:54;0.20;;;0.20;;
35943;SDS011;22029;54.774;9.434;2023-10-09T08:30:23;0.20;;;0.20;;
35943;SDS011;22029;54.774;9.434;2023-10-09T08:33:14;0.20;;;0.20;;
35943;SDS011;22029;54.774;9.434;2023-10-09T08:36:04;0.20;;;0.20;;
35943;SDS011;22029;54.774;9.434;2023-10-09T08:38:37;0.20;;;0.20;;
35943;SDS011;22029;54.774;9.434;2023-10-09T08:41:10;0.20;;;0.20;;
35943;SDS011;22029;54.774;9.434;2023-10-09T08:43:47;0.20;;;0.20;;
35943;SDS011;22029;54.774;9.434;2023-10-09T08:46:19;0.20;;;0.20;;
35943;SDS011;22029;54.774;9.434;2023-10-09T08:48:51;0.20;;;0.20;;
35943;SDS011;22029;54.774;9.434;2023-10-09T08:51:22;0.20;;;0.20;;
35943;SDS011;22029;54.774;9.434;2023-10-09T08:53:53;0.20;;;0.20;;
35943;SDS011;22029;54.774;9.434;2023-10-09T08:56:22;0.20;;;0.20;;
35943;SDS011;22029;54.774;9.434;2023-10-09T08:58:53;0.20;;;0.20;;
35943;SDS011;22029;54.774;9.434;2023-10-09T09:01:23;0.20;;;0.20;;
35943;SDS011;22029;54.774;9.434;2023-10-09T09:03:55;0.20;;;0.20;;
35943;SDS011;22029;54.774;9.434;2023-10-09T09:06:24;0.20;;;0.20;;
35943;SDS011;22029;54.774;9.434;2023-10-09T09:08:54;0.23;;;0.23;;
35943;SDS011;22029;54.774;9.434;2023-10-09T09:11:27;0.20;;;0.20;;
35943;SDS011;22029;54.774;9.434;2023-10-09T09:14:03;0.20;;;0.20;;
35943;SDS011;22029;54.774;9.434;2023-10-09T09:16:34;0.20;;;0.20;;
35943;SDS011;22029;54.774;9.434;2023-10-09T09:19:06;0.20;;;0.20;;
35943;SDS011;22029;54.774;9.434;2023-10-09T09:21:49;0.20;;;0.20;;
35943;SDS011;22029;54.774;9.434;2023-10-09T09:24:22;0.20;;;0.20;;
35943;SDS011;22029;54.774;9.434;2023-10-09T09:27:00;0.20;;;0.20;;
35943;SDS011;22029;54.774;9.434;2023-10-09T09:29:41;0.20;;;0.20;;
35943;SDS011;22029;54.774;9.434;2023-10-09T09:32:27;0.20;;;0.20;;
35943;SDS011;22029;54.774;9.434;2023-10-09T09:35:11;0.20;;;0.20;;
35943;SDS011;22029;54.774;9.434;2023-10-09T09:37:51;0.20;;;0.20;;
35943;SDS011;22029;54.774;9.434;2023-10-09T09:40:22;0.20;;;0.20;;
35943;SDS011;22029;54.774;9.434;2023-10-09T09:43:03;0.20;;;0.20;;
35943;SDS011;22029;54.774;9.434;2023-10-09T09:45:38;0.20;;;0.20;;
35943;SDS011;22029;54.774;9.434;2023-10-09T09:48:17;0.20;;;0.20;;
35943;SDS011;22029;54.774;9.434;2023-10-09T09:50:48;0.20;;;0.20;;
35943;SDS011;22029;54.774;9.434;2023-10-09T09:53:21;0.20;;;0.20;;
35943;SDS011;22029;54.774;9.434;2023-10-09T09:55:51;0.20;;;0.20;;
35943;SDS011;22029;54.774;9.434;2023-10-09T09:58:24;0.20;;;0.20;;
35943;SDS011;22029;54.774;9.434;2023-10-09T10:01:01;0.20;;;0.20;;
35943;SDS011;22029;54.774;9.434;2023-10-09T10:03:44;0.20;;;0.20;;
35943;SDS011;22029;54.774;9.434;2023-10-09T10:06:16;0.20;;;0.20;;
35943;SDS011;22029;54.774;9.434;2023-10-09T10:08:48;0.20;;;0.20;;
35943;SDS011;22029;54.774;9.434;2023-10-09T10:14:08;0.20;;;0.20;;
35943;SDS011;22029;54.774;9.434;2023-10-09T10:16:59;0.20;;;0.20;;
35943;SDS011;22029;54.774;9.434;2023-10-09T10:22:26;0.20;;;0.20;;
35943;SDS011;22029;54.774;9.434;2023-10-09T10:24:58;0.20;;;0.20;;
35943;SDS011;22029;54.774;9.434;2023-10-09T10:27:36;0.20;;;0.20;;
35943;SDS011;22029;54.774;9.434;2023-10-09T10:30:28;0.20;;;0.20;;
35943;SDS011;22029;54.774;9.434;2023-10-09T10:33:04;0.20;;;0.20;;
35943;SDS011;22029;54.774;9.434;2023-10-09T10:35:44;0.20;;;0.20;;
35943;SDS011;22029;54.774;9.434;2023-10-09T10:38:23;0.20;;;0.20;;
35943;SDS011;22029;54.774;9.434;2023-10-09T10:40:52;0.20;;;0.20;;
35943;SDS011;22029;54.774;9.434;2023-10-09T10:43:32;0.20;;;0.20;;
35943;SDS011;22029;54.774;9.434;2023-10-09T10:46:15;0.20;;;0.20;;
35943;SDS011;22029;54.774;9.434;2023-10-09T10:48:52;0.20;;;0.20;;
35943;SDS011;22029;54.774;9.434;2023-10-09T10:51:27;0.20;;;0.20;;
35943;SDS011;22029;54.774;9.434;2023-10-09T10:54:07;0.20;;;0.20;;
35943;SDS011;22029;54.774;9.434;2023-10-09T10:56:55;0.20;;;0.20;;
35943;SDS011;22029;54.774;9.434;2023-10-09T10:59:25;0.20;;;0.20;;
35943;SDS011;22029;54.774;9.434;2023-10-09T11:02:09;0.20;;;0.20;;
35943;SDS011;22029;54.774;9.434;2023-10-09T11:04:50;0.20;;;0.20;;
35943;SDS011;22029;54.774;9.434;2023-10-09T11:07:41;0.20;;;0.20;;
35943;SDS011;22029;54.774;9.434;2023-10-09T11:10:12;0.20;;;0.20;;
35943;SDS011;22029;54.774;9.434;2023-10-09T11:12:54;0.20;;;0.20;;
35943;SDS011;22029;54.774;9.434;2023-10-09T11:15:38;0.20;;;0.20;;
35943;SDS011;22029;54.774;9.434;2023-10-09T11:18:14;0.20;;;0.20;;
35943;SDS011;22029;54.774;9.434;2023-10-09T11:20:50;0.20;;;0.20;;
35943;SDS011;22029;54.774;9.434;2023-10-09T11:23:45;0.20;;;0.20;;
35943;SDS011;22029;54.774;9.434;2023-10-09T11:26:48;0.20;;;0.20;;
35943;SDS011;22029;54.774;9.434;2023-10-09T11:29:23;0.20;;;0.20;;
35943;SDS011;22029;54.774;9.434;2023-10-09T11:31:57;0.20;;;0.20;;
35943;SDS011;22029;54.774;9.434;2023-10-09T11:34:27;0.10;;;0.10;;
35943;SDS011;22029;54.774;9.434;2023-10-09T11:37:00;0.20;;;0.20;;
35943;SDS011;22029;54.774;9.434;2023-10-09T11:39:30;0.10;;;0.10;;
35943;SDS011;22029;54.774;9.434;2023-10-09T11:42:07;0.20;;;0.20;;
35943;SDS011;22029;54.774;9.434;2023-10-09T11:44:39;0.20;;;0.20;;
35943;SDS011;22029;54.774;9.434;2023-10-09T11:47:08;0.20;;;0.20;;
35943;SDS011;22029;54.774;9.434;2023-10-09T11:50:00;0.20;;;0.20;;
35943;SDS011;22029;54.774;9.434;2023-10-09T11:52:54;0.10;;;0.10;;
35943;SDS011;22029;54.774;9.434;2023-10-09T11:55:36;0.10;;;0.10;;
35943;SDS011;22029;54.774;9.434;2023-10-09T11:58:06;0.20;;;0.20;;
35943;SDS011;22029;54.774;9.434;2023-10-09T12:00:36;0.20;;;0.20;;
35943;SDS011;22029;54.774;9.434;2023-10-09T12:03:13;0.20;;;0.20;;
35943;SDS011;22029;54.774;9.434;2023-10-09T12:05:44;0.10;;;0.10;;
35943;SDS011;22029;54.774;9.434;2023-10-09T12:08:14;0.20;;;0.20;;
35943;SDS011;22029;54.774;9.434;2023-10-09T12:10:44;0.10;;;0.10;;
35943;SDS011;22029;54.774;9.434;2023-10-09T12:13:17;0.17;;;0.17;;
35943;SDS011;22029;54.774;9.434;2023-10-09T12:15:46;0.20;;;0.20;;
35943;SDS011;22029;54.774;9.434;2023-10-09T12:18:16;0.20;;;0.20;;
35943;SDS011;22029;54.774;9.434;2023-10-09T12:20:46;0.20;;;0.20;;
35943;SDS011;22029;54.774;9.434;2023-10-09T12:23:19;0.20;;;0.20;;
35943;SDS011;22029;54.774;9.434;2023-10-09T12:25:49;0.20;;;0.20;;
35943;SDS011;22029;54.774;9.434;2023-10-09T12:28:26;0.10;;;0.10;;
35943;SDS011;22029;54.774;9.434;2023-10-09T12:30:56;0.20;;;0.20;;
35943;SDS011;22029;54.774;9.434;2023-10-09T12:33:28;0.20;;;0.20;;
35943;SDS011;22029;54.774;9.434;2023-10-09T12:35:59;0.20;;;0.20;;
35943;SDS011;22029;54.774;9.434;2023-10-09T12:38:29;0.20;;;0.20;;
35943;SDS011;22029;54.774;9.434;2023-10-09T12:41:02;0.10;;;0.10;;
35943;SDS011;22029;54.774;9.434;2023-10-09T12:43:37;0.20;;;0.20;;
35943;SDS011;22029;54.774;9.434;2023-10-09T12:46:07;0.20;;;0.20;;
35943;SDS011;22029;54.774;9.434;2023-10-09T12:48:36;0.10;;;0.10;;
35943;SDS011;22029;54.774;9.434;2023-10-09T12:51:10;0.10;;;0.10;;
35943;SDS011;22029;54.774;9.434;2023-10-09T12:53:43;0.20;;;0.20;;
35943;SDS011;22029;54.774;9.434;2023-10-09T12:56:16;0.20;;;0.20;;
35943;SDS011;22029;54.774;9.434;2023-10-09T12:58:47;0.10;;;0.10;;
35943;SDS011;22029;54.774;9.434;2023-10-09T13:01:21;0.20;;;0.20;;
35943;SDS011;22029;54.774;9.434;2023-10-09T13:03:50;0.20;;;0.20;;
35943;SDS011;22029;54.774;9.434;2023-10-09T13:06:20;0.10;;;0.10;;
35943;SDS011;22029;54.774;9.434;2023-10-09T13:08:52;0.20;;;0.20;;
35943;SDS011;22029;54.774;9.434;2023-10-09T13:11:27;0.10;;;0.10;;
35943;SDS011;22029;54.774;9.434;2023-10-09T13:13:58;0.20;;;0.20;;
35943;SDS011;22029;54.774;9.434;2023-10-09T13:16:39;0.20;;;0.20;;
35943;SDS011;22029;54.774;9.434;2023-10-09T13:19:09;0.17;;;0.17;;
35943;SDS011;22029;54.774;9.434;2023-10-09T13:21:39;0.20;;;0.20;;
35943;SDS011;22029;54.774;9.434;2023-10-09T13:24:09;0.13;;;0.13;;
35943;SDS011;22029;54.774;9.434;2023-10-09T13:26:43;0.10;;;0.10;;
35943;SDS011;22029;54.774;9.434;2023-10-09T13:29:15;0.13;;;0.13;;
35943;SDS011;22029;54.774;9.434;2023-10-09T13:31:50;0.10;;;0.10;;
35943;SDS011;22029;54.774;9.434;2023-10-09T13:34:25;0.20;;;0.20;;
35943;SDS011;22029;54.774;9.434;2023-10-09T13:36:56;0.13;;;0.13;;
35943;SDS011;22029;54.774;9.434;2023-10-09T13:39:27;0.10;;;0.10;;
35943;SDS011;22029;54.774;9.434;2023-10-09T13:42:05;0.17;;;0.17;;
35943;SDS011;22029;54.774;9.434;2023-10-09T13:44:36;0.10;;;0.10;;
35943;SDS011;22029;54.774;9.434;2023-10-09T13:47:09;0.10;;;0.10;;
35943;SDS011;22029;54.774;9.434;2023-10-09T13:49:47;0.10;;;0.10;;
35943;SDS011;22029;54.774;9.434;2023-10-09T13:52:18;0.10;;;0.10;;
35943;SDS011;22029;54.774;9.434;2023-10-09T13:54:49;0.10;;;0.10;;
35943;SDS011;22029;54.774;9.434;2023-10-09T13:57:20;0.10;;;0.10;;
35943;SDS011;22029;54.774;9.434;2023-10-09T14:00:00;0.10;;;0.10;;
35943;SDS011;22029;54.774;9.434;2023-10-09T14:02:32;0.10;;;0.10;;
35943;SDS011;22029;54.774;9.434;2023-10-09T14:05:01;0.20;;;0.20;;
35943;SDS011;22029;54.774;9.434;2023-10-09T14:07:31;0.10;;;0.10;;
35943;SDS011;22029;54.774;9.434;2023-10-09T14:10:02;0.10;;;0.10;;
35943;SDS011;22029;54.774;9.434;2023-10-09T14:12:44;0.10;;;0.10;;
35943;SDS011;22029;54.774;9.434;2023-10-09T14:15:15;0.10;;;0.10;;
35943;SDS011;22029;54.774;9.434;2023-10-09T14:17:45;0.10;;;0.10;;
35943;SDS011;22029;54.774;9.434;2023-10-09T14:20:23;0.10;;;0.10;;
35943;SDS011;22029;54.774;9.434;2023-10-09T14:22:59;0.10;;;0.10;;
35943;SDS011;22029;54.774;9.434;2023-10-09T14:25:35;0.10;;;0.10;;
35943;SDS011;22029;54.774;9.434;2023-10-09T14:28:07;0.13;;;0.13;;
35943;SDS011;22029;54.774;9.434;2023-10-09T14:30:38;0.10;;;0.10;;
35943;SDS011;22029;54.774;9.434;2023-10-09T14:33:11;0.10;;;0.10;;
35943;SDS011;22029;54.774;9.434;2023-10-09T14:35:41;0.10;;;0.10;;
35943;SDS011;22029;54.774;9.434;2023-10-09T14:38:11;0.10;;;0.10;;
35943;SDS011;22029;54.774;9.434;2023-10-09T14:40:42;0.10;;;0.10;;
35943;SDS011;22029;54.774;9.434;2023-10-09T14:43:12;0.10;;;0.10;;
35943;SDS011;22029;54.774;9.434;2023-10-09T14:45:48;0.10;;;0.10;;
35943;SDS011;22029;54.774;9.434;2023-10-09T14:48:21;0.10;;;0.10;;
35943;SDS011;22029;54.774;9.434;2023-10-09T14:50:53;0.10;;;0.10;;
35943;SDS011;22029;54.774;9.434;2023-10-09T14:53:29;0.10;;;0.10;;
35943;SDS011;22029;54.774;9.434;2023-10-09T14:56:01;0.20;;;0.20;;
35943;SDS011;22029;54.774;9.434;2023-10-09T14:58:36;0.10;;;0.10;;
35943;SDS011;22029;54.774;9.434;2023-10-09T15:01:08;0.10;;;0.10;;
35943;SDS011;22029;54.774;9.434;2023-10-09T15:03:43;0.10;;;0.10;;
35943;SDS011;22029;54.774;9.434;2023-10-09T15:06:14;0.20;;;0.20;;
35943;SDS011;22029;54.774;9.434;2023-10-09T15:08:45;0.10;;;0.10;;
35943;SDS011;22029;54.774;9.434;2023-10-09T15:11:17;0.10;;;0.10;;
35943;SDS011;22029;54.774;9.434;2023-10-09T15:13:51;0.10;;;0.10;;
35943;SDS011;22029;54.774;9.434;2023-10-09T15:16:22;0.10;;;0.10;;
35943;SDS011;22029;54.774;9.434;2023-10-09T15:18:54;0.20;;;0.20;;
35943;SDS011;22029;54.774;9.434;2023-10-09T15:21:30;0.10;;;0.10;;
35943;SDS011;22029;54.774;9.434;2023-10-09T15:24:01;0.10;;;0.10;;
35943;SDS011;22029;54.774;9.434;2023-10-09T15:26:32;0.17;;;0.17;;
35943;SDS011;22029;54.774;9.434;2023-10-09T15:29:02;0.10;;;0.10;;
35943;SDS011;22029;54.774;9.434;2023-10-09T15:31:35;0.10;;;0.10;;
35943;SDS011;22029;54.774;9.434;2023-10-09T15:34:07;0.13;;;0.13;;
35943;SDS011;22029;54.774;9.434;2023-10-09T15:36:37;0.10;;;0.10;;
35943;SDS011;22029;54.774;9.434;2023-10-09T15:39:07;0.20;;;0.20;;
35943;SDS011;22029;54.774;9.434;2023-10-09T15:41:39;0.20;;;0.20;;
35943;SDS011;22029;54.774;9.434;2023-10-09T15:44:09;0.20;;;0.20;;
35943;SDS011;22029;54.774;9.434;2023-10-09T15:46:42;0.10;;;0.10;;
35943;SDS011;22029;54.774;9.434;2023-10-09T15:49:12;0.10;;;0.10;;